Airfield :
LOGIN :

Register | Disclaimer

   EN    FR    IT 

 










Legend :    VFR   Marginal VFR   IFR   Intensive IFR   Very Intensive IFR
Visi :
Ceiling :
>= 8 km
>= 3000ft
5 to 8 km
1000 to 3000 ft
1500m to 5 km
500 to 1000 ft
800 to 1500m
200 to 500 ft
< 800m
< 200 ft
Symbols :   Thunderstorms  Fog  Heavy snow  Heavy precipitations  Wind > 20 kt
SIGMETs :     Misc.  Thunderstorms  Icing  Turbulence  Mountain Waves  Volcanic Ashes







- Airport Elevation : 32 ft
- IATA code : NRK


ESSP - Norrköping

CURRENT METAR :
  • 160520Z 29002KT 3000 BCFG NSC 05/05 Q1016

EXPIRED METARs :
  • 160450Z 13002KT 1100 BCFG NSC 05/05 Q1016
  • 160420Z 00000KT 1200 BCFG NSC 05/05 Q1016
  • 160350Z 00000KT 5000 NSC 05/05 Q1015
  • 160320Z AUTO 32003KT 5000 BKN082/// 05/05 Q1016
  • 160250Z AUTO 00000KT 0550 R09/P1500N R27/P1500N BCFG BKN078/// 05/05 Q1015

TAF TAF ESSP
Valid from the 16 at 06:00 until the 16 at 15:00 UTC


160530Z 1606/1615 VRB02KT 9000 FEW045
TEMPO 1606/1609 1000 BCFG BKN008
No reported NOTAMs for that airfield.



MET'MAP, your aeronautical weather chart ! - Copyright ORBIFLY December 2007 - Disclaimer

ORBIFLY MET'MAP TEAM :

Programming & Development : Alexandra Zaïnal
Concept & Development : Baudouin d'Aumeries
Co-Development & Prog : Marc-Olivier Méhu
Technical & hardware support : Manuel Goepfert

Contact : metmap@orbifly.com




SOURCES & CREDITS :

   NOAA